createdAt,value
2022-08-28T00:00:54.291Z,18.00
2022-08-28T00:03:21.005Z,17.90
2022-08-28T00:05:47.833Z,18.00
2022-08-28T00:08:17.061Z,17.90
2022-08-28T00:10:44.745Z,17.90
2022-08-28T00:13:18.873Z,17.90
2022-08-28T00:15:49.198Z,17.90
2022-08-28T00:18:17.385Z,17.90
2022-08-28T00:20:44.767Z,17.90
2022-08-28T00:23:11.461Z,17.90
2022-08-28T00:25:38.145Z,17.90
2022-08-28T00:28:08.786Z,17.80
2022-08-28T00:30:44.063Z,17.90
2022-08-28T00:33:17.408Z,17.80
2022-08-28T00:35:44.220Z,17.80
2022-08-28T00:38:12.607Z,17.80
2022-08-28T00:40:42.757Z,17.80
2022-08-28T00:43:20.972Z,17.70
2022-08-28T00:45:48.086Z,17.70
2022-08-28T00:48:14.848Z,17.70
2022-08-28T00:51:00.778Z,17.70
2022-08-28T00:53:32.768Z,17.70
2022-08-28T00:56:04.161Z,17.70
2022-08-28T00:58:35.100Z,17.70
2022-08-28T01:01:01.842Z,17.70
2022-08-28T01:03:28.780Z,17.70
2022-08-28T01:05:55.763Z,17.70
2022-08-28T01:08:23.063Z,17.70
2022-08-28T01:10:55.329Z,17.70
2022-08-28T01:13:24.641Z,17.60
2022-08-28T01:15:51.691Z,17.60
2022-08-28T01:18:20.200Z,17.60
2022-08-28T01:21:23.770Z,17.60
2022-08-28T01:23:58.400Z,17.60
2022-08-28T01:26:29.096Z,17.60
2022-08-28T01:29:00.784Z,17.60
2022-08-28T01:31:31.200Z,17.50
2022-08-28T01:34:01.029Z,17.60
2022-08-28T01:36:29.197Z,17.50
2022-08-28T01:39:00.941Z,17.50
2022-08-28T01:41:29.514Z,17.50
2022-08-28T01:43:56.383Z,17.50
2022-08-28T01:46:23.214Z,17.50
2022-08-28T01:48:50.006Z,17.50
2022-08-28T01:51:19.478Z,17.50
2022-08-28T01:53:49.524Z,17.50
2022-08-28T01:56:17.692Z,17.50
2022-08-28T01:58:44.936Z,17.50
2022-08-28T02:01:18.966Z,17.50
2022-08-28T02:03:46.694Z,17.50
2022-08-28T02:06:15.048Z,17.50
2022-08-28T02:08:41.882Z,17.50
2022-08-28T02:11:09.139Z,17.50
2022-08-28T02:13:37.282Z,17.50
2022-08-28T02:16:06.156Z,17.50
2022-08-28T02:18:33.025Z,17.50
2022-08-28T02:20:59.754Z,17.50
2022-08-28T02:23:26.642Z,17.50
2022-08-28T02:25:53.507Z,17.50
2022-08-28T02:28:20.410Z,17.50
2022-08-28T02:30:47.297Z,17.50
2022-08-28T02:33:14.756Z,17.50
2022-08-28T02:35:42.491Z,17.50
2022-08-28T02:38:10.103Z,17.50
2022-08-28T02:40:37.325Z,17.40
2022-08-28T02:43:05.532Z,17.50
2022-08-28T02:45:32.742Z,17.40
2022-08-28T02:48:03.460Z,17.50
2022-08-28T02:50:31.073Z,17.50
2022-08-28T02:52:58.019Z,17.50
2022-08-28T02:55:25.475Z,17.40
2022-08-28T02:57:54.580Z,17.40
2022-08-28T03:00:24.199Z,17.40
2022-08-28T03:02:51.542Z,17.40
2022-08-28T03:05:21.577Z,17.40
2022-08-28T03:07:49.507Z,17.40
2022-08-28T03:10:16.394Z,17.40
2022-08-28T03:12:43.127Z,17.40
2022-08-28T03:15:10.308Z,17.40
2022-08-28T03:17:37.403Z,17.40
2022-08-28T03:20:07.934Z,17.40
2022-08-28T03:22:53.369Z,17.40
2022-08-28T03:25:20.257Z,17.40
2022-08-28T03:27:46.950Z,17.40
2022-08-28T03:30:14.393Z,17.40
2022-08-28T03:32:41.216Z,17.40
2022-08-28T03:35:08.966Z,17.30
2022-08-28T03:37:36.056Z,17.30
2022-08-28T03:40:04.129Z,17.30
2022-08-28T03:42:31.551Z,17.30
2022-08-28T03:44:59.421Z,17.30
2022-08-28T03:47:28.235Z,17.30
2022-08-28T03:49:57.741Z,17.30
2022-08-28T03:52:25.309Z,17.30
2022-08-28T03:54:52.464Z,17.30
2022-08-28T03:57:21.280Z,17.30
2022-08-28T03:59:49.811Z,17.20
2022-08-28T04:02:19.214Z,17.20
2022-08-28T04:04:47.663Z,17.20
2022-08-28T04:07:14.488Z,17.20
2022-08-28T04:09:41.193Z,17.20
2022-08-28T04:12:08.757Z,17.20
2022-08-28T04:14:36.059Z,17.20
2022-08-28T04:17:03.599Z,17.10
2022-08-28T04:19:30.491Z,17.10
2022-08-28T04:21:57.404Z,17.10
2022-08-28T04:24:24.401Z,17.10
2022-08-28T04:26:51.102Z,17.10
2022-08-28T04:29:18.483Z,17.10
2022-08-28T04:31:45.412Z,17.00
2022-08-28T04:34:12.247Z,17.00
2022-08-28T04:36:38.975Z,17.00
2022-08-28T04:39:08.472Z,17.00
2022-08-28T04:41:37.262Z,16.90
2022-08-28T04:44:04.813Z,16.90
2022-08-28T04:46:32.176Z,16.90
2022-08-28T04:48:59.468Z,16.90
2022-08-28T04:51:26.400Z,16.80
2022-08-28T04:53:53.161Z,16.80
2022-08-28T04:56:20.064Z,16.70
2022-08-28T04:58:46.799Z,16.70
2022-08-28T05:01:18.898Z,16.70
2022-08-28T05:03:52.370Z,16.70
2022-08-28T05:06:19.102Z,16.70
2022-08-28T05:08:45.838Z,16.60
2022-08-28T05:11:22.089Z,16.60
2022-08-28T05:14:01.583Z,16.60
2022-08-28T05:16:28.383Z,16.60
2022-08-28T05:19:00.089Z,16.50
2022-08-28T05:21:27.762Z,16.50
2022-08-28T05:23:57.329Z,16.50
2022-08-28T05:26:26.920Z,16.40
2022-08-28T05:28:56.460Z,16.40
2022-08-28T05:31:25.141Z,16.30
2022-08-28T05:33:52.829Z,16.40
2022-08-28T05:36:22.808Z,16.40
2022-08-28T05:38:51.205Z,16.40
2022-08-28T05:41:29.130Z,16.40
2022-08-28T05:43:58.601Z,16.40
2022-08-28T05:46:27.383Z,16.30
2022-08-28T05:48:55.464Z,16.30
2022-08-28T05:51:23.953Z,16.20
2022-08-28T05:53:51.547Z,16.30
2022-08-28T05:56:21.853Z,16.20
2022-08-28T05:58:48.607Z,16.30
2022-08-28T06:01:24.082Z,16.20
2022-08-28T06:04:00.383Z,16.20
2022-08-28T06:06:29.302Z,16.20
2022-08-28T06:09:03.889Z,16.20
2022-08-28T06:11:31.819Z,16.20
2022-08-28T06:14:02.937Z,16.20
2022-08-28T06:16:31.932Z,16.20
2022-08-28T06:19:00.586Z,16.20
2022-08-28T06:21:28.318Z,16.20
2022-08-28T06:23:55.454Z,16.30
2022-08-28T06:26:22.921Z,16.30
2022-08-28T06:28:49.650Z,16.30
2022-08-28T06:31:24.714Z,16.30
2022-08-28T06:33:57.469Z,16.30
2022-08-28T06:36:29.857Z,16.30
2022-08-28T06:39:01.078Z,16.40
2022-08-28T06:41:29.256Z,16.40
2022-08-28T06:43:56.490Z,16.40
2022-08-28T06:46:24.989Z,16.40
2022-08-28T06:48:52.681Z,16.30
2022-08-28T06:51:19.952Z,16.40
2022-08-28T06:53:49.916Z,16.40
2022-08-28T06:56:26.465Z,16.40
2022-08-28T06:58:55.767Z,16.50
2022-08-28T07:01:34.804Z,16.40
2022-08-28T07:04:09.349Z,16.50
2022-08-28T07:06:46.755Z,16.50
2022-08-28T07:09:14.240Z,16.50
2022-08-28T07:11:44.657Z,16.60
2022-08-28T07:14:11.481Z,16.60
2022-08-28T07:16:39.472Z,16.60
2022-08-28T07:19:08.278Z,16.70
2022-08-28T07:21:39.443Z,16.70
2022-08-28T07:24:08.681Z,16.80
2022-08-28T07:26:35.988Z,16.80
2022-08-28T07:29:09.894Z,16.80
2022-08-28T07:31:40.721Z,16.90
2022-08-28T07:34:09.082Z,16.90
2022-08-28T07:36:36.009Z,16.90
2022-08-28T07:39:02.990Z,17.00
2022-08-28T07:41:32.662Z,17.00
2022-08-28T07:44:18.360Z,17.00
2022-08-28T07:46:45.816Z,17.00
2022-08-28T07:49:15.423Z,17.10
2022-08-28T07:51:42.082Z,17.10
2022-08-28T07:54:11.613Z,17.10
2022-08-28T07:56:44.514Z,17.20
2022-08-28T07:59:11.875Z,17.30
2022-08-28T08:01:43.650Z,17.30
2022-08-28T08:04:13.203Z,17.40
2022-08-28T08:06:41.768Z,17.50
2022-08-28T08:09:11.699Z,17.50
2022-08-28T08:11:38.367Z,17.60
2022-08-28T08:14:06.094Z,17.70
2022-08-28T08:16:35.924Z,17.70
2022-08-28T08:19:03.394Z,17.80
2022-08-28T08:21:30.735Z,17.90
2022-08-28T08:23:58.292Z,18.00
2022-08-28T08:26:30.336Z,18.00
2022-08-28T08:28:58.100Z,18.10
2022-08-28T08:31:32.192Z,18.20
2022-08-28T08:34:03.000Z,18.30
2022-08-28T08:36:31.579Z,18.40
2022-08-28T08:39:00.413Z,18.50
2022-08-28T08:41:51.707Z,18.50
2022-08-28T08:44:33.216Z,18.60
2022-08-28T08:47:25.794Z,18.70
2022-08-28T08:50:02.986Z,18.80
2022-08-28T08:52:41.605Z,18.90
2022-08-28T08:55:44.729Z,19.00
2022-08-28T08:58:46.280Z,19.20
2022-08-28T09:01:53.147Z,19.20
2022-08-28T09:04:42.892Z,19.30
2022-08-28T09:07:22.403Z,19.50
2022-08-28T09:09:57.556Z,19.50
2022-08-28T09:12:30.313Z,19.60
2022-08-28T09:15:12.779Z,19.70
2022-08-28T09:17:53.699Z,19.90
2022-08-28T09:20:32.856Z,19.90
2022-08-28T09:23:00.668Z,20.00
2022-08-28T09:25:44.280Z,20.00
2022-08-28T09:28:16.818Z,20.10
2022-08-28T09:30:44.627Z,20.20
2022-08-28T09:33:11.353Z,20.30
2022-08-28T09:35:38.237Z,20.40
2022-08-28T09:38:27.671Z,20.50
2022-08-28T09:41:28.452Z,20.60
2022-08-28T09:43:55.883Z,20.70
2022-08-28T09:46:29.130Z,20.90
2022-08-28T09:49:13.320Z,20.90
2022-08-28T09:51:40.519Z,21.20
2022-08-28T09:54:26.114Z,21.20
2022-08-28T09:56:53.177Z,21.40
2022-08-28T09:59:22.952Z,21.40
2022-08-28T10:02:19.578Z,21.60
2022-08-28T10:05:16.240Z,21.70
2022-08-28T10:07:58.365Z,22.00
2022-08-28T10:10:36.626Z,22.20
2022-08-28T10:13:17.266Z,22.30
2022-08-28T10:15:59.072Z,22.60
2022-08-28T10:18:42.043Z,22.70
2022-08-28T10:21:41.886Z,22.60
2022-08-28T10:24:28.465Z,22.60
2022-08-28T10:27:05.133Z,22.90
2022-08-28T10:30:11.281Z,22.90
2022-08-28T10:33:08.753Z,23.00
2022-08-28T10:35:55.501Z,23.00
2022-08-28T10:38:40.033Z,23.10
2022-08-28T10:41:25.305Z,23.20
2022-08-28T10:43:54.586Z,23.50
2022-08-28T10:46:27.478Z,23.40
2022-08-28T10:49:05.403Z,23.40
2022-08-28T10:51:44.252Z,23.50
2022-08-28T10:54:32.753Z,23.80
2022-08-28T10:57:09.577Z,24.10
2022-08-28T10:59:42.379Z,24.10
2022-08-28T11:02:12.522Z,24.20
2022-08-28T11:04:39.860Z,24.20
2022-08-28T11:07:11.273Z,24.60
2022-08-28T11:09:39.772Z,24.60
2022-08-28T11:12:28.637Z,24.60
2022-08-28T11:14:55.326Z,24.70
2022-08-28T11:17:21.967Z,24.60
2022-08-28T11:19:52.619Z,24.70
2022-08-28T11:22:27.019Z,24.80
2022-08-28T11:25:18.810Z,24.60
2022-08-28T11:28:39.375Z,24.80
2022-08-28T11:31:06.118Z,24.90
2022-08-28T11:33:50.481Z,25.00
2022-08-28T11:36:20.258Z,25.20
2022-08-28T11:38:55.728Z,25.30
2022-08-28T11:41:38.910Z,25.50
2022-08-28T11:44:12.377Z,25.80
2022-08-28T11:46:47.788Z,26.10
2022-08-28T11:49:29.535Z,26.00
2022-08-28T11:52:13.618Z,25.90
2022-08-28T11:54:50.575Z,26.20
2022-08-28T11:57:42.440Z,26.50
2022-08-28T12:00:17.572Z,26.40
2022-08-28T12:03:10.467Z,26.30
2022-08-28T12:05:45.946Z,26.30
2022-08-28T12:08:33.270Z,26.30
2022-08-28T12:10:59.979Z,26.30
2022-08-28T12:13:44.029Z,26.40
2022-08-28T12:16:10.730Z,26.00
2022-08-28T12:18:42.593Z,26.00
2022-08-28T12:21:20.799Z,25.90
2022-08-28T12:24:09.909Z,25.80
2022-08-28T12:26:49.986Z,25.90
2022-08-28T12:29:27.461Z,26.00
2022-08-28T12:32:21.176Z,26.20
2022-08-28T12:34:52.861Z,26.20
2022-08-28T12:37:19.508Z,26.50
2022-08-28T12:39:46.207Z,26.50
2022-08-28T12:42:19.039Z,26.80
2022-08-28T12:44:47.323Z,26.90
2022-08-28T12:47:22.717Z,26.90
2022-08-28T12:49:49.431Z,27.10
2022-08-28T12:52:17.546Z,27.30
2022-08-28T12:54:46.222Z,27.40
2022-08-28T12:57:19.663Z,27.30
2022-08-28T12:59:49.857Z,27.10
2022-08-28T13:02:28.187Z,27.00
2022-08-28T13:05:03.021Z,27.00
2022-08-28T13:07:50.863Z,26.70
2022-08-28T13:10:22.491Z,26.50
2022-08-28T13:13:00.807Z,26.50
2022-08-28T13:15:50.221Z,26.40
2022-08-28T13:18:37.144Z,26.50
2022-08-28T13:21:24.623Z,26.30
2022-08-28T13:24:20.528Z,26.10
2022-08-28T13:26:49.102Z,26.00
2022-08-28T13:29:22.942Z,26.10
2022-08-28T13:31:59.665Z,26.10
2022-08-28T13:34:32.377Z,26.10
2022-08-28T13:37:02.780Z,26.30
2022-08-28T13:39:33.918Z,26.20
2022-08-28T13:42:16.413Z,26.10
2022-08-28T13:44:48.543Z,26.10
2022-08-28T13:47:16.705Z,26.00
2022-08-28T13:49:43.767Z,25.90
2022-08-28T13:52:11.075Z,25.90
2022-08-28T13:54:38.160Z,25.90
2022-08-28T13:57:10.436Z,26.00
2022-08-28T13:59:37.199Z,26.20
2022-08-28T14:02:26.243Z,26.50
2022-08-28T14:04:53.701Z,26.70
2022-08-28T14:07:20.494Z,26.90
2022-08-28T14:09:47.551Z,27.10
2022-08-28T14:12:14.224Z,27.10
2022-08-28T14:14:41.215Z,27.20
2022-08-28T14:17:09.721Z,27.40
2022-08-28T14:19:36.931Z,27.50
2022-08-28T14:22:04.168Z,27.60
2022-08-28T14:24:31.056Z,27.70
2022-08-28T14:26:58.704Z,27.80
2022-08-28T14:29:25.611Z,27.90
2022-08-28T14:31:52.390Z,27.90
2022-08-28T14:34:22.538Z,27.90
2022-08-28T14:36:55.227Z,28.20
2022-08-28T14:39:25.516Z,28.40
2022-08-28T14:41:53.252Z,28.70
2022-08-28T14:44:21.661Z,28.90
2022-08-28T14:46:49.472Z,29.20
2022-08-28T14:49:17.752Z,29.20
2022-08-28T14:51:46.421Z,29.10
2022-08-28T14:54:15.847Z,28.80
2022-08-28T14:56:44.108Z,28.80
2022-08-28T14:59:18.405Z,28.70
2022-08-28T15:01:48.900Z,28.60
2022-08-28T15:04:18.376Z,28.60
2022-08-28T15:06:45.648Z,28.50
2022-08-28T15:09:13.912Z,28.40
2022-08-28T15:11:42.185Z,28.50
2022-08-28T15:14:09.020Z,28.40
2022-08-28T15:16:39.712Z,28.40
2022-08-28T15:19:07.357Z,28.50
2022-08-28T15:21:38.322Z,28.40
2022-08-28T15:24:06.624Z,28.40
2022-08-28T15:26:33.581Z,28.50
2022-08-28T15:29:03.460Z,28.40
2022-08-28T15:31:33.131Z,28.60
2022-08-28T15:34:05.051Z,28.80
2022-08-28T15:36:34.423Z,29.00
2022-08-28T15:39:20.984Z,29.00
2022-08-28T15:41:47.774Z,29.10
2022-08-28T15:44:15.211Z,29.30
2022-08-28T15:46:48.863Z,29.30
2022-08-28T15:49:18.443Z,29.40
2022-08-28T15:51:45.260Z,29.00
2022-08-28T15:54:12.873Z,28.80
2022-08-28T15:56:41.547Z,28.60
2022-08-28T15:59:11.876Z,28.70
2022-08-28T16:01:38.803Z,28.80
2022-08-28T16:04:06.570Z,28.90
2022-08-28T16:06:34.735Z,29.00
2022-08-28T16:09:01.428Z,28.90
2022-08-28T16:11:28.628Z,28.70
2022-08-28T16:14:01.092Z,28.70
2022-08-28T16:16:28.060Z,28.60
2022-08-28T16:18:55.317Z,28.50
2022-08-28T16:21:22.859Z,28.30
2022-08-28T16:23:54.339Z,28.30
2022-08-28T16:26:21.244Z,28.30
2022-08-28T16:28:47.963Z,28.40
2022-08-28T16:31:20.652Z,28.40
2022-08-28T16:33:48.610Z,28.30
2022-08-28T16:36:17.171Z,28.20
2022-08-28T16:38:46.243Z,28.20
2022-08-28T16:41:21.850Z,28.20
2022-08-28T16:43:49.568Z,28.10
2022-08-28T16:46:22.131Z,28.00
2022-08-28T16:48:49.267Z,27.90
2022-08-28T16:51:16.882Z,27.80
2022-08-28T16:53:44.131Z,27.90
2022-08-28T16:56:12.904Z,28.10
2022-08-28T16:58:41.083Z,28.00
2022-08-28T17:01:09.592Z,27.70
2022-08-28T17:03:38.102Z,27.70
2022-08-28T17:06:17.917Z,27.80
2022-08-28T17:08:44.651Z,27.80
2022-08-28T17:11:12.169Z,27.80
2022-08-28T17:13:39.962Z,27.70
2022-08-28T17:16:07.978Z,27.50
2022-08-28T17:18:35.139Z,27.50
2022-08-28T17:21:20.428Z,27.40
2022-08-28T17:23:47.635Z,27.30
2022-08-28T17:26:15.527Z,27.40
2022-08-28T17:28:43.266Z,27.40
2022-08-28T17:31:10.795Z,27.30
2022-08-28T17:33:39.372Z,27.30
2022-08-28T17:36:15.302Z,27.10
2022-08-28T17:38:52.381Z,27.10
2022-08-28T17:41:19.168Z,27.00
2022-08-28T17:43:45.872Z,26.80
2022-08-28T17:46:14.304Z,26.70
2022-08-28T17:48:41.109Z,26.70
2022-08-28T17:51:16.091Z,26.80
2022-08-28T17:53:46.199Z,26.60
2022-08-28T17:56:13.361Z,26.50
2022-08-28T17:58:40.052Z,26.40
2022-08-28T18:01:06.784Z,26.40
2022-08-28T18:03:36.653Z,26.30
2022-08-28T18:06:19.450Z,26.00
2022-08-28T18:08:47.688Z,25.90
2022-08-28T18:11:15.132Z,25.90
2022-08-28T18:13:42.484Z,25.70
2022-08-28T18:16:10.276Z,25.70
2022-08-28T18:18:37.038Z,25.70
2022-08-28T18:21:03.998Z,25.50
2022-08-28T18:23:30.992Z,25.50
2022-08-28T18:25:57.708Z,25.30
2022-08-28T18:28:26.207Z,25.30
2022-08-28T18:30:53.789Z,25.00
2022-08-28T18:33:23.582Z,24.90
2022-08-28T18:35:51.536Z,24.80
2022-08-28T18:38:19.732Z,24.40
2022-08-28T18:40:46.854Z,24.30
2022-08-28T18:43:13.912Z,24.10
2022-08-28T18:45:40.718Z,23.90
2022-08-28T18:48:10.328Z,23.90
2022-08-28T18:50:37.923Z,23.90
2022-08-28T18:53:05.454Z,23.80
2022-08-28T18:55:32.921Z,23.60
2022-08-28T18:58:03.717Z,23.60
2022-08-28T19:00:32.777Z,23.50
2022-08-28T19:02:59.923Z,23.50
2022-08-28T19:05:26.949Z,23.40
2022-08-28T19:07:53.794Z,23.40
2022-08-28T19:10:32.602Z,23.30
2022-08-28T19:13:01.057Z,23.30
2022-08-28T19:15:28.627Z,23.10
2022-08-28T19:17:55.565Z,23.10
2022-08-28T19:20:22.559Z,22.90
2022-08-28T19:22:49.736Z,22.80
2022-08-28T19:25:28.022Z,22.70
2022-08-28T19:27:59.138Z,22.70
2022-08-28T19:30:32.732Z,22.60
2022-08-28T19:33:00.695Z,22.50
2022-08-28T19:35:27.365Z,22.40
2022-08-28T19:37:54.257Z,22.40
2022-08-28T19:40:22.076Z,22.40
2022-08-28T19:42:49.961Z,22.30
2022-08-28T19:45:17.729Z,22.20
2022-08-28T19:47:44.620Z,22.10
2022-08-28T19:50:13.853Z,22.00
2022-08-28T19:52:40.974Z,21.90
2022-08-28T19:55:08.600Z,21.80
2022-08-28T19:57:35.385Z,21.70
2022-08-28T20:00:04.011Z,21.60
2022-08-28T20:02:30.792Z,21.50
2022-08-28T20:04:57.526Z,21.40
2022-08-28T20:07:24.992Z,21.30
2022-08-28T20:09:52.107Z,21.30
2022-08-28T20:12:19.019Z,21.20
2022-08-28T20:14:46.109Z,21.10
2022-08-28T20:17:12.765Z,20.90
2022-08-28T20:19:39.453Z,20.80
2022-08-28T20:22:06.163Z,20.70
2022-08-28T20:24:33.072Z,20.50
2022-08-28T20:26:59.793Z,20.50
2022-08-28T20:29:26.502Z,20.40
2022-08-28T20:31:54.087Z,20.30
2022-08-28T20:34:21.235Z,20.30
2022-08-28T20:36:48.531Z,20.20
2022-08-28T20:39:15.750Z,20.10
2022-08-28T20:41:44.081Z,20.00
2022-08-28T20:44:12.829Z,20.00
2022-08-28T20:46:42.031Z,19.90
2022-08-28T20:49:10.113Z,19.90
2022-08-28T20:51:55.648Z,19.80
2022-08-28T20:54:27.499Z,19.70
2022-08-28T20:56:55.648Z,19.60
2022-08-28T20:59:22.989Z,19.50
2022-08-28T21:01:50.984Z,19.50
2022-08-28T21:04:18.433Z,19.40
2022-08-28T21:06:48.096Z,19.30
2022-08-28T21:09:15.646Z,19.20
2022-08-28T21:11:43.935Z,19.10
2022-08-28T21:14:11.038Z,19.10
2022-08-28T21:16:39.235Z,19.00
2022-08-28T21:19:16.058Z,18.90
2022-08-28T21:21:44.004Z,18.90
2022-08-28T21:24:12.756Z,18.80
2022-08-28T21:26:45.268Z,18.70
2022-08-28T21:29:12.855Z,18.60
2022-08-28T21:31:42.725Z,18.50
2022-08-28T21:34:09.932Z,18.40
2022-08-28T21:36:38.136Z,18.30
2022-08-28T21:39:05.864Z,18.30
2022-08-28T21:41:32.662Z,18.20
2022-08-28T21:43:59.312Z,18.10
2022-08-28T21:46:27.501Z,18.00
2022-08-28T21:48:56.128Z,17.90
2022-08-28T21:51:23.892Z,17.90
2022-08-28T21:53:51.721Z,17.80
2022-08-28T21:56:28.845Z,17.70
2022-08-28T21:58:56.940Z,17.60
2022-08-28T22:01:26.812Z,17.60
2022-08-28T22:03:55.459Z,17.50
2022-08-28T22:06:24.230Z,17.40
2022-08-28T22:08:52.197Z,17.30
2022-08-28T22:11:24.529Z,17.20
2022-08-28T22:13:53.077Z,17.20
2022-08-28T22:16:20.873Z,17.10
2022-08-28T22:18:47.591Z,17.00
2022-08-28T22:21:35.033Z,17.00
2022-08-28T22:24:01.958Z,16.90
2022-08-28T22:26:29.183Z,16.80
2022-08-28T22:28:56.163Z,16.70
2022-08-28T22:31:23.401Z,16.60
2022-08-28T22:33:50.407Z,16.60
2022-08-28T22:36:17.347Z,16.50
2022-08-28T22:38:46.985Z,16.40
2022-08-28T22:41:20.394Z,16.40
2022-08-28T22:43:50.907Z,16.30
2022-08-28T22:46:20.523Z,16.20
2022-08-28T22:48:47.936Z,16.20
2022-08-28T22:51:18.362Z,16.10
2022-08-28T22:53:45.338Z,16.00
2022-08-28T22:56:12.943Z,16.00
2022-08-28T22:58:39.959Z,15.90
2022-08-28T23:01:15.408Z,15.80
2022-08-28T23:03:42.702Z,15.80
2022-08-28T23:06:09.571Z,15.80
2022-08-28T23:08:36.543Z,15.70
2022-08-28T23:11:03.774Z,15.70
2022-08-28T23:13:30.960Z,15.60
2022-08-28T23:15:57.791Z,15.50
2022-08-28T23:18:25.070Z,15.40
2022-08-28T23:20:52.421Z,15.40
2022-08-28T23:23:20.075Z,15.30
2022-08-28T23:25:47.111Z,15.30
2022-08-28T23:28:13.769Z,15.20
2022-08-28T23:30:43.934Z,15.20
2022-08-28T23:33:23.168Z,15.10
2022-08-28T23:35:51.479Z,15.10
2022-08-28T23:38:18.325Z,15.00
2022-08-28T23:40:47.975Z,14.90
2022-08-28T23:43:15.169Z,14.90
2022-08-28T23:45:43.935Z,14.80
2022-08-28T23:48:11.265Z,14.70
2022-08-28T23:50:41.354Z,14.80
2022-08-28T23:53:08.616Z,14.60
2022-08-28T23:55:36.655Z,14.60
2022-08-28T23:58:05.470Z,14.50
